createdAt,value
2023-02-23T00:02:34.483Z,25.5
2023-02-23T00:08:28.613Z,25.5
2023-02-23T00:14:20.565Z,25.4
2023-02-23T00:20:12.766Z,25.4
2023-02-23T00:25:52.780Z,25.4
2023-02-23T00:31:48.365Z,25.4
2023-02-23T00:37:40.893Z,25.4
2023-02-23T00:43:34.594Z,25.4
2023-02-23T00:49:28.607Z,25.4
2023-02-23T00:55:21.124Z,25.4
2023-02-23T01:01:14.206Z,25.3
2023-02-23T01:07:07.151Z,25.3
2023-02-23T01:12:59.697Z,25.3
2023-02-23T01:18:53.645Z,25.3
2023-02-23T01:24:46.538Z,25.3
2023-02-23T01:30:24.333Z,25.3
2023-02-23T01:36:20.141Z,25.3
2023-02-23T01:42:13.411Z,25.2
2023-02-23T01:48:05.387Z,25.2
2023-02-23T01:53:43.115Z,25.2
2023-02-23T01:59:36.728Z,25.1
2023-02-23T02:05:13.249Z,25.1
2023-02-23T02:11:07.277Z,25.1
2023-02-23T02:17:00.188Z,25.1
2023-02-23T02:22:37.665Z,25.1
2023-02-23T02:28:16.363Z,25.1
2023-02-23T02:34:09.633Z,25.1
2023-02-23T02:40:02.973Z,25.1
2023-02-23T02:45:56.673Z,25
2023-02-23T02:51:34.710Z,25
2023-02-23T02:57:12.149Z,25
2023-02-23T03:02:49.364Z,24.9
2023-02-23T03:08:26.698Z,24.9
2023-02-23T03:13:48.450Z,24.9
2023-02-23T03:19:26.699Z,24.9
2023-02-23T03:25:04.471Z,24.9
2023-02-23T03:30:26.011Z,24.9
2023-02-23T03:35:47.457Z,24.8
2023-02-23T03:41:10.083Z,24.8
2023-02-23T03:46:48.305Z,24.8
2023-02-23T03:52:26.498Z,24.8
2023-02-23T03:58:04.945Z,24.8
2023-02-23T04:03:41.987Z,24.8
2023-02-23T04:09:04.270Z,24.8
2023-02-23T04:14:27.085Z,24.7
2023-02-23T04:20:03.511Z,24.7
2023-02-23T04:25:40.700Z,24.7
2023-02-23T04:31:18.909Z,24.7
2023-02-23T04:37:11.973Z,24.6
2023-02-23T04:42:33.941Z,24.6
2023-02-23T04:48:11.561Z,24.6
2023-02-23T04:53:49.522Z,24.5
2023-02-23T04:59:45.802Z,24.3
2023-02-23T05:05:41.265Z,24.1
2023-02-23T05:11:32.718Z,24.1
2023-02-23T05:17:25.806Z,24.1
2023-02-23T05:23:19.880Z,24
2023-02-23T05:29:12.558Z,24
2023-02-23T05:35:06.957Z,23.9
2023-02-23T05:41:00.239Z,23.8
2023-02-23T05:46:36.608Z,23.8
2023-02-23T05:52:30.416Z,23.7
2023-02-23T05:58:08.466Z,23.6
2023-02-23T06:03:45.021Z,23.6
2023-02-23T06:09:38.296Z,23.6
2023-02-23T06:15:31.345Z,23.5
2023-02-23T06:21:23.171Z,23.5
2023-02-23T06:27:17.997Z,23.4
2023-02-23T06:33:11.874Z,23.4
2023-02-23T06:39:04.295Z,23.3
2023-02-23T06:44:56.731Z,23.3
2023-02-23T06:50:49.173Z,23.3
2023-02-23T06:56:28.887Z,23.3
2023-02-23T07:02:22.413Z,23.3
2023-02-23T07:08:15.322Z,23.3
2023-02-23T07:14:10.757Z,23.3
2023-02-23T07:20:05.506Z,23.3
2023-02-23T07:25:58.195Z,23.3
2023-02-23T07:31:51.663Z,23.3
2023-02-23T07:37:45.506Z,23.3
2023-02-23T07:43:39.584Z,26.3
2023-02-23T07:49:32.894Z,48.3
2023-02-23T07:55:25.685Z,44.4
2023-02-23T08:01:20.840Z,38.7
2023-02-23T08:07:13.368Z,47.9
2023-02-23T08:13:08.423Z,49.4
2023-02-23T08:19:00.838Z,45.9
2023-02-23T08:25:05.383Z,48.3
2023-02-23T08:30:58.852Z,52.6
2023-02-23T08:36:52.590Z,48.6
2023-02-23T08:42:45.680Z,49.8
2023-02-23T08:48:38.986Z,49.6
2023-02-23T08:54:31.192Z,48.3
2023-02-23T09:00:07.639Z,45.1
2023-02-23T09:06:00.897Z,50.9
2023-02-23T09:11:54.225Z,55.1
2023-02-23T09:17:46.504Z,49.8
2023-02-23T09:23:39.897Z,52.1
2023-02-23T09:29:20.750Z,53.4
2023-02-23T09:34:58.168Z,54.1
2023-02-23T09:40:47.563Z,54.2
2023-02-23T09:46:25.485Z,55.3
2023-02-23T09:52:18.221Z,56.4
2023-02-23T09:58:11.592Z,57.1
2023-02-23T10:09:44.481Z,57.9
2023-02-23T10:21:36.526Z,58.7
2023-02-23T10:27:28.789Z,58.1
2023-02-23T10:33:07.033Z,59
2023-02-23T10:39:05.171Z,58.9
2023-02-23T10:44:49.810Z,58.1
2023-02-23T10:50:43.183Z,58.6
2023-02-23T10:56:26.247Z,59.7
2023-02-23T11:02:34.157Z,59.8
2023-02-23T11:08:37.227Z,60.4
2023-02-23T11:14:47.882Z,59.9
2023-02-23T11:20:54.264Z,58.3
2023-02-23T11:26:56.786Z,53.9
2023-02-23T11:32:50.030Z,50.1
2023-02-23T11:38:42.456Z,59.9
2023-02-23T11:44:38.932Z,55.1
2023-02-23T11:50:33.529Z,50.9
2023-02-23T11:56:09.806Z,46.4
2023-02-23T12:02:04.149Z,42.1
2023-02-23T12:07:58.199Z,39.1
2023-02-23T12:13:35.891Z,37
2023-02-23T12:19:29.283Z,43.6
2023-02-23T12:25:22.281Z,57.1
2023-02-23T12:31:26.591Z,53.2
2023-02-23T12:37:20.062Z,48.6
2023-02-23T12:43:12.985Z,43.9
2023-02-23T12:48:50.213Z,40.3
2023-02-23T12:54:44.105Z,37.9
2023-02-23T13:00:38.874Z,36.1
2023-02-23T13:06:31.833Z,34.7
2023-02-23T13:12:32.603Z,33.5
2023-02-23T13:18:25.393Z,32.6
2023-02-23T13:24:03.251Z,31.8
2023-02-23T13:29:41.225Z,31.2
2023-02-23T13:35:29.176Z,30.6
2023-02-23T13:41:35.762Z,30
2023-02-23T13:47:28.137Z,29.5
2023-02-23T13:53:28.585Z,29
2023-02-23T13:59:30.834Z,28.6
2023-02-23T14:05:25.425Z,28.3
2023-02-23T14:10:49.024Z,28
2023-02-23T14:16:45.000Z,27.7
2023-02-23T14:22:47.761Z,27.4
2023-02-23T14:28:57.158Z,27.3
2023-02-23T14:34:45.007Z,27.1
2023-02-23T14:40:49.892Z,26.9
2023-02-23T14:46:54.137Z,26.8
2023-02-23T14:53:01.313Z,26.6
2023-02-23T14:58:45.441Z,26.5
2023-02-23T15:04:55.356Z,26.4
2023-02-23T15:10:47.544Z,26.3
2023-02-23T15:16:48.472Z,26.3
2023-02-23T15:22:51.538Z,26.2
2023-02-23T15:28:58.950Z,26.1
2023-02-23T15:34:53.390Z,26.1
2023-02-23T15:41:18.861Z,26
2023-02-23T15:47:20.703Z,26
2023-02-23T15:53:27.079Z,25.9
2023-02-23T15:59:13.365Z,25.9
2023-02-23T16:05:06.366Z,25.9
2023-02-23T16:11:08.530Z,25.8
2023-02-23T16:17:10.757Z,25.7
2023-02-23T16:23:04.068Z,25.7
2023-02-23T16:29:05.355Z,25.6
2023-02-23T16:34:28.217Z,25.6
2023-02-23T16:40:05.329Z,25.6
2023-02-23T16:46:07.010Z,25.5
2023-02-23T16:52:05.343Z,25.5
2023-02-23T16:57:58.275Z,25.4
2023-02-23T17:04:03.754Z,25.4
2023-02-23T17:09:48.149Z,25.4
2023-02-23T17:15:41.866Z,25.3
2023-02-23T17:21:35.443Z,25.3
2023-02-23T17:27:28.512Z,25.3
2023-02-23T17:33:26.064Z,25.3
2023-02-23T17:39:19.193Z,25.3
2023-02-23T17:45:12.578Z,25.2
2023-02-23T17:51:06.260Z,25.2
2023-02-23T17:57:01.503Z,25.2
2023-02-23T18:02:55.693Z,25.1
2023-02-23T18:08:48.757Z,25.1
2023-02-23T18:14:26.222Z,25.1
2023-02-23T18:20:20.989Z,25.1
2023-02-23T18:26:14.547Z,25.1
2023-02-23T18:31:52.202Z,25
2023-02-23T18:37:46.730Z,25
2023-02-23T18:43:39.671Z,24.9
2023-02-23T18:49:17.482Z,24.9
2023-02-23T18:54:54.667Z,24.9
2023-02-23T19:00:50.967Z,24.9
2023-02-23T19:06:45.578Z,24.9
2023-02-23T19:12:23.257Z,24.9
2023-02-23T19:18:30.478Z,24.9
2023-02-23T19:24:23.878Z,24.8
2023-02-23T19:30:01.206Z,24.9
2023-02-23T19:35:56.399Z,24.8
2023-02-23T19:41:49.431Z,24.8
2023-02-23T19:47:41.548Z,24.8
2023-02-23T19:53:35.070Z,24.8
2023-02-23T19:59:26.409Z,24.8
2023-02-23T20:05:20.480Z,24.8
2023-02-23T20:11:13.915Z,24.8
2023-02-23T20:17:06.996Z,24.8
2023-02-23T20:22:59.084Z,24.8
2023-02-23T20:28:52.178Z,24.8
2023-02-23T20:34:47.384Z,24.8
2023-02-23T20:40:40.566Z,24.8
2023-02-23T20:46:34.360Z,24.8
2023-02-23T20:52:27.236Z,24.9
2023-02-23T20:58:05.351Z,24.9
2023-02-23T21:03:44.463Z,25
2023-02-23T21:09:37.842Z,24.9
2023-02-23T21:15:30.678Z,24.9
2023-02-23T21:21:10.530Z,24.9
2023-02-23T21:27:03.836Z,24.9
2023-02-23T21:32:29.537Z,24.9
2023-02-23T21:38:23.415Z,24.8
2023-02-23T21:44:16.142Z,24.8
2023-02-23T21:50:09.387Z,24.8
2023-02-23T21:56:10.220Z,24.8
2023-02-23T22:02:03.265Z,24.7
2023-02-23T22:07:55.845Z,24.7
2023-02-23T22:13:32.700Z,24.7
2023-02-23T22:19:26.401Z,24.6
2023-02-23T22:25:19.212Z,24.6
2023-02-23T22:31:12.090Z,24.6
2023-02-23T22:37:05.752Z,24.5
2023-02-23T22:42:42.711Z,24.5
2023-02-23T22:48:36.076Z,24.5
2023-02-23T22:55:13.049Z,24.4
2023-02-23T23:00:49.954Z,24.4
2023-02-23T23:06:44.223Z,24.4
2023-02-23T23:12:37.719Z,24.4
2023-02-23T23:18:49.875Z,24.4
2023-02-23T23:24:43.299Z,24.3
2023-02-23T23:30:35.066Z,24.3
2023-02-23T23:36:30.249Z,24.3
2023-02-23T23:42:22.490Z,24.2
2023-02-23T23:48:15.568Z,24.1
2023-02-23T23:54:08.772Z,24.1
